sensor_id;sensor_type;location;lat;lon;timestamp;temperature;humidity
33927;DHT22;20485;50.992;5.550;2023-07-24T00:20:13;16.50;99.90
33927;DHT22;20485;50.992;5.550;2023-07-24T00:22:39;16.50;99.90
33927;DHT22;20485;50.992;5.550;2023-07-24T00:25:07;16.60;99.90
33927;DHT22;20485;50.992;5.550;2023-07-24T00:27:34;16.70;99.90
33927;DHT22;20485;50.992;5.550;2023-07-24T00:30:00;16.70;99.90
33927;DHT22;20485;50.992;5.550;2023-07-24T00:32:25;16.80;99.90
33927;DHT22;20485;50.992;5.550;2023-07-24T00:34:52;16.80;99.90
33927;DHT22;20485;50.992;5.550;2023-07-24T00:37:18;16.80;99.90
33927;DHT22;20485;50.992;5.550;2023-07-24T00:39:44;16.90;99.90
33927;DHT22;20485;50.992;5.550;2023-07-24T00:42:10;16.90;99.90
33927;DHT22;20485;50.992;5.550;2023-07-24T00:44:36;16.90;99.90
33927;DHT22;20485;50.992;5.550;2023-07-24T00:47:04;16.90;99.90
33927;DHT22;20485;50.992;5.550;2023-07-24T00:49:30;16.90;99.90
33927;DHT22;20485;50.992;5.550;2023-07-24T00:51:56;16.90;99.90
33927;DHT22;20485;50.992;5.550;2023-07-24T00:54:23;17.00;99.90
33927;DHT22;20485;50.992;5.550;2023-07-24T00:56:49;16.90;99.90
33927;DHT22;20485;50.992;5.550;2023-07-24T00:59:15;16.90;99.90
33927;DHT22;20485;50.992;5.550;2023-07-24T01:01:42;17.00;99.90
33927;DHT22;20485;50.992;5.550;2023-07-24T01:04:08;16.90;99.90
33927;DHT22;20485;50.992;5.550;2023-07-24T01:06:34;17.00;99.90
33927;DHT22;20485;50.992;5.550;2023-07-24T01:09:00;17.00;99.90
33927;DHT22;20485;50.992;5.550;2023-07-24T01:11:32;16.90;99.90
33927;DHT22;20485;50.992;5.550;2023-07-24T01:14:08;16.90;99.90
33927;DHT22;20485;50.992;5.550;2023-07-24T01:16:41;16.90;99.90
33927;DHT22;20485;50.992;5.550;2023-07-24T15:28:27;22.30;99.90
33927;DHT22;20485;50.992;5.550;2023-07-24T15:30:54;23.10;99.90
33927;DHT22;20485;50.992;5.550;2023-07-24T15:33:20;24.00;99.90
33927;DHT22;20485;50.992;5.550;2023-07-24T15:35:45;24.80;99.90
33927;DHT22;20485;50.992;5.550;2023-07-24T15:38:11;25.70;99.90
33927;DHT22;20485;50.992;5.550;2023-07-24T15:40:38;26.00;99.90
33927;DHT22;20485;50.992;5.550;2023-07-24T15:43:05;25.20;99.90
33927;DHT22;20485;50.992;5.550;2023-07-24T15:45:31;23.50;99.90
33927;DHT22;20485;50.992;5.550;2023-07-24T15:47:57;21.90;99.90
33927;DHT22;20485;50.992;5.550;2023-07-24T15:50:22;20.80;99.90
33927;DHT22;20485;50.992;5.550;2023-07-24T15:52:48;20.10;99.90
33927;DHT22;20485;50.992;5.550;2023-07-24T15:55:14;19.30;99.90
33927;DHT22;20485;50.992;5.550;2023-07-24T15:57:39;18.80;99.90
33927;DHT22;20485;50.992;5.550;2023-07-24T16:00:05;18.40;99.90
33927;DHT22;20485;50.992;5.550;2023-07-24T16:02:34;18.30;99.90
33927;DHT22;20485;50.992;5.550;2023-07-24T16:05:00;18.20;99.90
33927;DHT22;20485;50.992;5.550;2023-07-24T16:07:28;18.10;99.90
33927;DHT22;20485;50.992;5.550;2023-07-24T16:09:54;18.10;99.90
33927;DHT22;20485;50.992;5.550;2023-07-24T16:12:19;18.00;99.90
33927;DHT22;20485;50.992;5.550;2023-07-24T16:14:45;17.80;99.90
33927;DHT22;20485;50.992;5.550;2023-07-24T16:17:10;17.50;99.90
33927;DHT22;20485;50.992;5.550;2023-07-24T16:19:36;17.50;99.90
33927;DHT22;20485;50.992;5.550;2023-07-24T16:22:05;17.40;99.90
33927;DHT22;20485;50.992;5.550;2023-07-24T16:24:31;17.40;99.90
33927;DHT22;20485;50.992;5.550;2023-07-24T16:26:57;17.30;99.90
33927;DHT22;20485;50.992;5.550;2023-07-24T16:29:23;17.30;99.90
33927;DHT22;20485;50.992;5.550;2023-07-24T16:31:48;17.30;99.90
33927;DHT22;20485;50.992;5.550;2023-07-24T16:34:14;17.30;99.90
33927;DHT22;20485;50.992;5.550;2023-07-24T16:36:41;17.40;99.90
33927;DHT22;20485;50.992;5.550;2023-07-24T16:39:07;17.30;99.90
33927;DHT22;20485;50.992;5.550;2023-07-24T16:41:35;17.30;99.90
33927;DHT22;20485;50.992;5.550;2023-07-24T16:44:01;17.30;99.90
33927;DHT22;20485;50.992;5.550;2023-07-24T16:46:27;17.30;99.90
33927;DHT22;20485;50.992;5.550;2023-07-24T16:48:53;17.30;99.90
33927;DHT22;20485;50.992;5.550;2023-07-24T16:51:18;17.30;99.90
33927;DHT22;20485;50.992;5.550;2023-07-24T16:53:44;17.20;99.90
33927;DHT22;20485;50.992;5.550;2023-07-24T16:56:10;17.30;99.90
33927;DHT22;20485;50.992;5.550;2023-07-24T16:58:35;17.40;99.90
33927;DHT22;20485;50.992;5.550;2023-07-24T17:01:01;17.40;99.90
33927;DHT22;20485;50.992;5.550;2023-07-24T17:03:27;17.50;99.90
33927;DHT22;20485;50.992;5.550;2023-07-24T17:05:53;17.70;99.90
33927;DHT22;20485;50.992;5.550;2023-07-24T17:08:19;17.70;99.90
33927;DHT22;20485;50.992;5.550;2023-07-24T17:10:47;17.70;99.90
33927;DHT22;20485;50.992;5.550;2023-07-24T17:13:13;17.80;99.90
33927;DHT22;20485;50.992;5.550;2023-07-24T17:15:39;18.00;99.90
33927;DHT22;20485;50.992;5.550;2023-07-24T17:18:06;17.90;99.90
33927;DHT22;20485;50.992;5.550;2023-07-24T17:23:09;17.90;99.90
33927;DHT22;20485;50.992;5.550;2023-07-24T17:25:35;17.90;99.90
33927;DHT22;20485;50.992;5.550;2023-07-24T17:28:03;18.00;99.90
33927;DHT22;20485;50.992;5.550;2023-07-24T17:30:28;18.00;99.90
33927;DHT22;20485;50.992;5.550;2023-07-24T17:32:54;18.10;99.90
33927;DHT22;20485;50.992;5.550;2023-07-24T17:35:20;18.30;99.90
33927;DHT22;20485;50.992;5.550;2023-07-24T17:37:45;18.30;99.90
33927;DHT22;20485;50.992;5.550;2023-07-24T17:40:11;18.40;99.90
33927;DHT22;20485;50.992;5.550;2023-07-24T17:42:37;18.20;99.90
33927;DHT22;20485;50.992;5.550;2023-07-24T17:45:03;18.20;99.90
33927;DHT22;20485;50.992;5.550;2023-07-24T17:47:29;18.10;99.90
33927;DHT22;20485;50.992;5.550;2023-07-24T17:49:54;18.10;99.90
33927;DHT22;20485;50.992;5.550;2023-07-24T17:52:20;18.00;99.90
33927;DHT22;20485;50.992;5.550;2023-07-24T17:54:46;17.90;99.90
33927;DHT22;20485;50.992;5.550;2023-07-24T17:57:13;17.80;99.90
33927;DHT22;20485;50.992;5.550;2023-07-24T17:59:39;17.80;99.90
33927;DHT22;20485;50.992;5.550;2023-07-24T18:02:05;17.60;99.90
33927;DHT22;20485;50.992;5.550;2023-07-24T18:04:31;17.60;99.90
33927;DHT22;20485;50.992;5.550;2023-07-24T18:06:58;17.60;99.90
33927;DHT22;20485;50.992;5.550;2023-07-24T18:09:24;17.60;99.90
33927;DHT22;20485;50.992;5.550;2023-07-24T18:11:54;17.60;99.90
33927;DHT22;20485;50.992;5.550;2023-07-24T18:14:19;17.60;99.90
33927;DHT22;20485;50.992;5.550;2023-07-24T18:16:46;17.70;99.90
33927;DHT22;20485;50.992;5.550;2023-07-24T18:19:12;17.90;99.90
33927;DHT22;20485;50.992;5.550;2023-07-24T18:21:37;18.00;99.90
33927;DHT22;20485;50.992;5.550;2023-07-24T18:24:10;18.10;99.90
33927;DHT22;20485;50.992;5.550;2023-07-24T18:26:36;18.20;99.90
33927;DHT22;20485;50.992;5.550;2023-07-24T18:29:07;18.10;99.90
33927;DHT22;20485;50.992;5.550;2023-07-24T18:31:34;18.20;99.90
33927;DHT22;20485;50.992;5.550;2023-07-24T18:34:00;17.90;99.90
33927;DHT22;20485;50.992;5.550;2023-07-24T18:36:26;17.90;99.90
33927;DHT22;20485;50.992;5.550;2023-07-24T18:38:51;17.80;99.90
33927;DHT22;20485;50.992;5.550;2023-07-24T18:41:20;17.70;99.90
33927;DHT22;20485;50.992;5.550;2023-07-24T18:43:45;17.60;99.90
33927;DHT22;20485;50.992;5.550;2023-07-24T18:46:11;17.60;99.90
33927;DHT22;20485;50.992;5.550;2023-07-24T18:48:36;17.50;99.90
33927;DHT22;20485;50.992;5.550;2023-07-24T18:51:02;17.40;99.90
33927;DHT22;20485;50.992;5.550;2023-07-24T18:53:29;17.30;99.90
33927;DHT22;20485;50.992;5.550;2023-07-24T18:55:56;17.30;99.90
33927;DHT22;20485;50.992;5.550;2023-07-24T18:58:23;17.30;99.90
33927;DHT22;20485;50.992;5.550;2023-07-24T19:00:49;17.30;99.90
33927;DHT22;20485;50.992;5.550;2023-07-24T19:03:15;17.30;99.90
33927;DHT22;20485;50.992;5.550;2023-07-24T19:05:40;17.30;99.90
33927;DHT22;20485;50.992;5.550;2023-07-24T19:08:06;17.20;99.90
33927;DHT22;20485;50.992;5.550;2023-07-24T19:10:33;17.30;99.90
33927;DHT22;20485;50.992;5.550;2023-07-24T19:12:58;17.30;99.90
33927;DHT22;20485;50.992;5.550;2023-07-24T19:15:24;17.30;99.90
33927;DHT22;20485;50.992;5.550;2023-07-24T19:17:49;17.20;99.90
33927;DHT22;20485;50.992;5.550;2023-07-24T19:20:15;17.10;99.90
33927;DHT22;20485;50.992;5.550;2023-07-24T19:22:42;17.00;99.90
33927;DHT22;20485;50.992;5.550;2023-07-24T19:25:08;16.90;99.90
33927;DHT22;20485;50.992;5.550;2023-07-24T19:27:34;16.90;99.90
33927;DHT22;20485;50.992;5.550;2023-07-24T19:29:59;16.90;99.90
33927;DHT22;20485;50.992;5.550;2023-07-24T19:32:28;16.90;99.90
33927;DHT22;20485;50.992;5.550;2023-07-24T19:34:54;16.80;99.90
33927;DHT22;20485;50.992;5.550;2023-07-24T19:37:22;16.70;99.90
33927;DHT22;20485;50.992;5.550;2023-07-24T19:39:48;16.70;99.90
33927;DHT22;20485;50.992;5.550;2023-07-24T19:42:14;16.70;99.90
33927;DHT22;20485;50.992;5.550;2023-07-24T19:44:40;16.70;99.90
33927;DHT22;20485;50.992;5.550;2023-07-24T19:47:06;16.60;99.90
33927;DHT22;20485;50.992;5.550;2023-07-24T19:49:31;16.60;99.90
33927;DHT22;20485;50.992;5.550;2023-07-24T19:52:00;16.60;99.90
33927;DHT22;20485;50.992;5.550;2023-07-24T19:54:27;16.60;99.90
33927;DHT22;20485;50.992;5.550;2023-07-24T19:56:54;16.50;99.90
33927;DHT22;20485;50.992;5.550;2023-07-24T19:59:20;16.50;99.90
33927;DHT22;20485;50.992;5.550;2023-07-24T20:01:47;16.40;99.90
33927;DHT22;20485;50.992;5.550;2023-07-24T20:04:13;16.50;99.90
33927;DHT22;20485;50.992;5.550;2023-07-24T20:06:38;16.40;99.90
33927;DHT22;20485;50.992;5.550;2023-07-24T20:09:04;16.30;99.90
33927;DHT22;20485;50.992;5.550;2023-07-24T20:11:33;16.30;99.90
33927;DHT22;20485;50.992;5.550;2023-07-24T20:14:11;16.20;99.90
33927;DHT22;20485;50.992;5.550;2023-07-24T20:16:51;16.00;99.90
33927;DHT22;20485;50.992;5.550;2023-07-24T20:19:16;16.00;99.90
33927;DHT22;20485;50.992;5.550;2023-07-24T20:21:42;16.00;99.90
33927;DHT22;20485;50.992;5.550;2023-07-24T20:24:09;15.90;99.90
33927;DHT22;20485;50.992;5.550;2023-07-24T20:26:35;15.90;99.90
33927;DHT22;20485;50.992;5.550;2023-07-24T20:29:01;15.90;99.90
33927;DHT22;20485;50.992;5.550;2023-07-24T20:31:27;15.90;99.90
33927;DHT22;20485;50.992;5.550;2023-07-24T20:33:52;15.80;99.90
33927;DHT22;20485;50.992;5.550;2023-07-24T20:36:18;15.70;99.90
33927;DHT22;20485;50.992;5.550;2023-07-24T20:38:44;15.70;99.90
33927;DHT22;20485;50.992;5.550;2023-07-24T20:41:09;15.70;99.90
33927;DHT22;20485;50.992;5.550;2023-07-24T20:43:38;15.70;99.90
33927;DHT22;20485;50.992;5.550;2023-07-24T20:46:09;15.60;99.90
33927;DHT22;20485;50.992;5.550;2023-07-24T20:48:36;15.50;99.90
33927;DHT22;20485;50.992;5.550;2023-07-24T20:51:02;15.30;99.90
33927;DHT22;20485;50.992;5.550;2023-07-24T20:53:28;15.30;99.90
33927;DHT22;20485;50.992;5.550;2023-07-24T20:55:55;15.20;99.90
33927;DHT22;20485;50.992;5.550;2023-07-24T20:58:20;15.20;99.90
33927;DHT22;20485;50.992;5.550;2023-07-24T21:00:46;15.30;99.90
33927;DHT22;20485;50.992;5.550;2023-07-24T21:03:12;15.20;99.90
33927;DHT22;20485;50.992;5.550;2023-07-24T21:05:37;15.20;99.90
33927;DHT22;20485;50.992;5.550;2023-07-24T21:08:03;15.10;99.90
33927;DHT22;20485;50.992;5.550;2023-07-24T21:10:29;15.10;99.90
33927;DHT22;20485;50.992;5.550;2023-07-24T21:12:55;15.00;99.90
33927;DHT22;20485;50.992;5.550;2023-07-24T21:15:20;14.90;99.90
33927;DHT22;20485;50.992;5.550;2023-07-24T21:17:46;14.80;99.90
33927;DHT22;20485;50.992;5.550;2023-07-24T21:20:12;14.70;99.90
33927;DHT22;20485;50.992;5.550;2023-07-24T21:22:38;14.70;99.90
33927;DHT22;20485;50.992;5.550;2023-07-24T21:25:03;14.70;99.90
33927;DHT22;20485;50.992;5.550;2023-07-24T21:27:29;14.60;99.90
33927;DHT22;20485;50.992;5.550;2023-07-24T21:29:55;14.60;99.90
33927;DHT22;20485;50.992;5.550;2023-07-24T21:32:21;14.60;99.90
33927;DHT22;20485;50.992;5.550;2023-07-24T21:34:47;14.50;99.90
33927;DHT22;20485;50.992;5.550;2023-07-24T21:37:12;14.40;99.90
33927;DHT22;20485;50.992;5.550;2023-07-24T21:39:38;14.40;99.90
33927;DHT22;20485;50.992;5.550;2023-07-24T21:42:04;14.30;99.90
33927;DHT22;20485;50.992;5.550;2023-07-24T21:44:30;14.30;99.90
33927;DHT22;20485;50.992;5.550;2023-07-24T21:46:56;14.30;99.90
33927;DHT22;20485;50.992;5.550;2023-07-24T21:49:21;14.20;99.90
33927;DHT22;20485;50.992;5.550;2023-07-24T21:51:47;14.20;99.90
33927;DHT22;20485;50.992;5.550;2023-07-24T21:54:12;14.20;99.90
33927;DHT22;20485;50.992;5.550;2023-07-24T21:56:38;14.10;99.90
33927;DHT22;20485;50.992;5.550;2023-07-24T21:59:04;14.00;99.90
33927;DHT22;20485;50.992;5.550;2023-07-24T22:01:29;14.00;99.90
33927;DHT22;20485;50.992;5.550;2023-07-24T22:03:55;14.00;99.90
33927;DHT22;20485;50.992;5.550;2023-07-24T22:06:21;14.00;99.90
33927;DHT22;20485;50.992;5.550;2023-07-24T22:08:46;13.90;99.90
33927;DHT22;20485;50.992;5.550;2023-07-24T22:11:13;13.90;99.90
33927;DHT22;20485;50.992;5.550;2023-07-24T22:13:39;13.80;99.90
33927;DHT22;20485;50.992;5.550;2023-07-24T22:16:08;13.80;99.90
33927;DHT22;20485;50.992;5.550;2023-07-24T22:18:34;13.70;99.90
33927;DHT22;20485;50.992;5.550;2023-07-24T22:20:59;13.70;99.90
33927;DHT22;20485;50.992;5.550;2023-07-24T22:25:50;13.60;99.90
33927;DHT22;20485;50.992;5.550;2023-07-24T22:28:16;13.60;99.90
33927;DHT22;20485;50.992;5.550;2023-07-24T22:30:42;13.50;99.90
33927;DHT22;20485;50.992;5.550;2023-07-24T22:33:08;13.50;99.90
33927;DHT22;20485;50.992;5.550;2023-07-24T22:35:33;13.40;99.90
33927;DHT22;20485;50.992;5.550;2023-07-24T22:38:00;13.40;99.90
33927;DHT22;20485;50.992;5.550;2023-07-24T22:40:30;13.30;99.90
33927;DHT22;20485;50.992;5.550;2023-07-24T22:42:56;13.30;99.90
33927;DHT22;20485;50.992;5.550;2023-07-24T22:45:23;13.30;99.90
33927;DHT22;20485;50.992;5.550;2023-07-24T22:47:49;13.30;99.90
33927;DHT22;20485;50.992;5.550;2023-07-24T22:50:14;13.40;99.90
33927;DHT22;20485;50.992;5.550;2023-07-24T22:52:41;13.40;99.90
33927;DHT22;20485;50.992;5.550;2023-07-24T22:55:07;13.40;99.90
33927;DHT22;20485;50.992;5.550;2023-07-24T22:57:33;13.40;99.90
33927;DHT22;20485;50.992;5.550;2023-07-24T22:59:58;13.40;99.90
33927;DHT22;20485;50.992;5.550;2023-07-24T23:02:24;13.30;99.90
33927;DHT22;20485;50.992;5.550;2023-07-24T23:04:50;13.30;99.90
33927;DHT22;20485;50.992;5.550;2023-07-24T23:07:16;13.30;99.90
33927;DHT22;20485;50.992;5.550;2023-07-24T23:09:42;13.20;99.90
33927;DHT22;20485;50.992;5.550;2023-07-24T23:12:08;13.10;99.90
33927;DHT22;20485;50.992;5.550;2023-07-24T23:14:34;13.10;99.90
33927;DHT22;20485;50.992;5.550;2023-07-24T23:16:59;13.10;99.90
33927;DHT22;20485;50.992;5.550;2023-07-24T23:19:25;13.10;99.90
33927;DHT22;20485;50.992;5.550;2023-07-24T23:21:51;13.20;99.90
33927;DHT22;20485;50.992;5.550;2023-07-24T23:24:17;13.20;99.90
33927;DHT22;20485;50.992;5.550;2023-07-24T23:26:42;13.10;99.90
33927;DHT22;20485;50.992;5.550;2023-07-24T23:29:08;13.10;99.90
33927;DHT22;20485;50.992;5.550;2023-07-24T23:31:34;13.10;99.90
33927;DHT22;20485;50.992;5.550;2023-07-24T23:33:59;13.10;99.90
33927;DHT22;20485;50.992;5.550;2023-07-24T23:36:25;13.10;99.90
33927;DHT22;20485;50.992;5.550;2023-07-24T23:38:51;13.10;99.90
33927;DHT22;20485;50.992;5.550;2023-07-24T23:41:17;13.20;99.90
33927;DHT22;20485;50.992;5.550;2023-07-24T23:43:42;13.20;99.90
33927;DHT22;20485;50.992;5.550;2023-07-24T23:46:11;13.20;99.90
33927;DHT22;20485;50.992;5.550;2023-07-24T23:48:38;13.20;99.90
33927;DHT22;20485;50.992;5.550;2023-07-24T23:51:03;13.20;99.90
33927;DHT22;20485;50.992;5.550;2023-07-24T23:53:29;13.20;99.90
33927;DHT22;20485;50.992;5.550;2023-07-24T23:55:55;13.20;99.90
33927;DHT22;20485;50.992;5.550;2023-07-24T23:58:20;13.10;99.90
